Time;durP1;ratioP1;P1;durP2;ratioP2;P2;SDS_P1;SDS_P2;PMS_P1;PMS_P2;Temp;Humidity;BMP_temperature;BMP_pressure;BME280_temperature;BME280_humidity;BME280_pressure;Samples;Min_cycle;Max_cycle;Signal;HPM_P1;HPM_P2
2023/09/13 00:00:02;;;;;;;18.38;9.05;;;537.80;2406.40;;;;;;4955117;29;20471;-72
2023/09/13 00:02:28;;;;;;;16.00;9.27;;;537.80;2406.40;;;;;;4938012;29;20028;-74
2023/09/13 00:04:56;;;;;;;22.67;8.95;;;537.70;2406.40;;;;;;4955376;29;20039;-72
2023/09/13 00:07:22;;;;;;;22.90;9.50;;;537.60;2406.40;;;;;;4955258;29;20027;-74
2023/09/13 00:09:48;;;;;;;19.58;8.93;;;537.70;2406.40;;;;;;4954946;29;20027;-72
2023/09/13 00:12:13;;;;;;;20.75;10.00;;;537.80;2406.40;;;;;;4937995;29;20080;-73
2023/09/13 00:14:39;;;;;;;116.32;45.33;;;538.00;2406.40;;;;;;4954494;29;20031;-74
2023/09/13 00:20:46;;;;;;;229.38;114.45;;;538.30;2406.40;;;;;;5080024;23;20133;-73
2023/09/13 00:23:12;;;;;;;27.02;12.02;;;538.10;2406.40;;;;;;5007015;28;20108;-72
2023/09/13 00:25:38;;;;;;;20.95;9.63;;;537.80;2406.40;;;;;;5012224;28;20026;-73
2023/09/13 00:28:04;;;;;;;23.23;10.85;;;537.70;2406.40;;;;;;5012284;28;20133;-74
2023/09/13 00:30:29;;;;;;;30.48;11.88;;;537.60;2406.40;;;;;;5012166;28;20477;-73
2023/09/13 00:32:55;;;;;;;26.65;11.30;;;512.90;2380.80;;;;;;5010437;28;20029;-74
2023/09/13 00:35:21;;;;;;;30.77;11.07;;;512.90;2380.80;;;;;;5012877;28;20097;-73
2023/09/13 00:37:49;;;;;;;21.13;9.45;;;512.90;2380.80;;;;;;5017707;28;20533;-73
2023/09/13 00:40:15;;;;;;;26.23;10.70;;;512.90;2380.80;;;;;;5012887;28;20022;-72
2023/09/13 00:42:41;;;;;;;25.95;10.52;;;512.80;2380.80;;;;;;5022710;28;20041;-73
2023/09/13 00:45:07;;;;;;;24.30;10.85;;;512.70;2380.80;;;;;;5018178;28;20550;-74
2023/09/13 00:47:34;;;;;;;22.30;9.43;;;512.60;2380.80;;;;;;5018501;28;20022;-73
2023/09/13 00:50:00;;;;;;;26.13;10.85;;;512.50;2380.80;;;;;;5014039;28;20034;-72
2023/09/13 00:52:25;;;;;;;23.42;10.38;;;512.50;2380.80;;;;;;5005645;28;20032;-73
2023/09/13 00:54:53;;;;;;;26.35;10.82;;;512.40;2380.80;;;;;;5017276;28;20428;-74
2023/09/13 00:57:21;;;;;;;20.70;10.00;;;512.50;2380.80;;;;;;5022041;28;20381;-75
2023/09/13 00:59:47;;;;;;;23.38;11.10;;;512.50;2380.80;;;;;;5025809;28;20033;-74
2023/09/13 01:02:13;;;;;;;30.00;11.30;;;512.50;2380.80;;;;;;5035425;28;20038;-72
2023/09/13 01:04:39;;;;;;;17.98;9.57;;;512.50;2380.80;;;;;;5034564;28;20037;-72
2023/09/13 01:07:08;;;;;;;27.35;11.95;;;512.30;2380.80;;;;;;5035540;28;20083;-73
2023/09/13 01:09:34;;;;;;;27.75;10.82;;;512.30;2380.80;;;;;;5034867;28;20032;-73
2023/09/13 01:12:00;;;;;;;20.80;10.63;;;512.50;2380.80;;;;;;5034910;28;20074;-73
2023/09/13 01:14:26;;;;;;;17.10;9.20;;;512.50;2380.80;;;;;;5034588;28;20473;-72
2023/09/13 01:17:00;;;;;;;22.08;10.15;;;512.70;2380.80;;;;;;5035028;28;20017;-73
2023/09/13 01:19:44;;;;;;;18.88;8.30;;;512.60;2380.80;;;;;;5033912;28;20041;-74
2023/09/13 01:22:15;;;;;;;21.02;8.73;;;512.60;2380.80;;;;;;5034606;28;20033;-73
2023/09/13 01:25:13;;;;;;;19.67;8.23;;;512.80;2380.80;;;;;;5029585;28;20073;-73
2023/09/13 01:28:07;;;;;;;16.70;8.15;;;512.70;2380.80;;;;;;5032233;28;20025;-74
2023/09/13 01:30:34;;;;;;;16.27;8.27;;;512.60;2380.80;;;;;;5030451;28;20427;-74
2023/09/13 01:33:01;;;;;;;21.02;8.20;;;512.30;2380.80;;;;;;5034512;28;20047;-73
2023/09/13 01:35:26;;;;;;;23.83;8.90;;;512.30;2380.80;;;;;;5034254;28;20052;-74
2023/09/13 01:37:52;;;;;;;26.65;9.63;;;512.20;2380.80;;;;;;5034693;28;20449;-73
2023/09/13 01:40:20;;;;;;;21.50;8.75;;;512.20;2380.80;;;;;;5034416;28;20056;-72
2023/09/13 01:42:48;;;;;;;15.43;7.78;;;512.30;2380.80;;;;;;5034090;28;20051;-72
2023/09/13 01:45:14;;;;;;;19.15;8.50;;;512.20;2380.80;;;;;;5035127;28;20213;-74
2023/09/13 01:47:42;;;;;;;16.75;9.18;;;512.50;2380.80;;;;;;5034183;28;20026;-73
2023/09/13 01:50:09;;;;;;;16.55;7.93;;;512.00;2380.80;;;;;;5021884;28;20033;-73
2023/09/13 01:52:36;;;;;;;20.63;8.52;;;487.30;2380.80;;;;;;5034325;28;20028;-74
2023/09/13 01:55:08;;;;;;;18.20;8.23;;;487.20;2380.80;;;;;;5027789;28;20038;-73
2023/09/13 01:57:34;;;;;;;19.88;7.95;;;487.10;2380.80;;;;;;5028010;28;20017;-73
2023/09/13 02:00:00;;;;;;;17.73;7.57;;;487.10;2380.80;;;;;;5033963;28;20436;-74
2023/09/13 02:02:25;;;;;;;23.73;8.15;;;487.10;2380.80;;;;;;5034593;28;20067;-74
2023/09/13 02:04:52;;;;;;;20.45;8.40;;;487.30;2380.80;;;;;;5033187;28;20137;-74
2023/09/13 02:07:18;;;;;;;18.58;7.97;;;487.30;2380.80;;;;;;5034100;28;20053;-74
2023/09/13 02:09:44;;;;;;;21.20;7.63;;;487.30;2380.80;;;;;;5006969;28;20608;-73
2023/09/13 02:12:13;;;;;;;16.17;7.25;;;487.30;2380.80;;;;;;5018946;28;20065;-74
2023/09/13 02:14:39;;;;;;;14.65;7.22;;;487.30;2380.80;;;;;;5032559;28;20036;-74
2023/09/13 02:17:06;;;;;;;12.40;6.43;;;512.20;2380.80;;;;;;5034267;28;20389;-74
2023/09/13 02:19:32;;;;;;;15.32;7.43;;;487.30;2380.80;;;;;;5033277;28;20125;-72
2023/09/13 02:21:58;;;;;;;17.73;7.03;;;487.30;2380.80;;;;;;5033413;28;20073;-73
2023/09/13 02:24:23;;;;;;;20.25;7.78;;;487.30;2380.80;;;;;;5033484;28;20389;-74
2023/09/13 02:26:57;;;;;;;18.05;6.55;;;512.10;2380.80;;;;;;5033569;28;20025;-74
2023/09/13 02:29:23;;;;;;;14.63;6.28;;;512.10;2380.80;;;;;;5026009;28;20136;-73
2023/09/13 02:31:49;;;;;;;18.10;7.35;;;512.10;2380.80;;;;;;5033567;28;20094;-74
2023/09/13 02:34:15;;;;;;;17.50;6.65;;;487.30;2380.80;;;;;;5033807;28;20041;-74
2023/09/13 02:36:41;;;;;;;15.18;7.57;;;512.00;2380.80;;;;;;5033451;28;20064;-73
2023/09/13 02:39:36;;;;;;;14.30;7.35;;;512.10;2380.80;;;;;;5034159;28;20022;-74
2023/09/13 02:42:03;;;;;;;12.65;6.65;;;512.10;2380.80;;;;;;5032578;28;20068;-73
2023/09/13 02:44:30;;;;;;;12.82;6.38;;;512.20;2380.80;;;;;;5033232;28;20044;-73
2023/09/13 02:46:56;;;;;;;16.40;7.18;;;512.20;2380.80;;;;;;5033699;28;20033;-74
2023/09/13 02:49:22;;;;;;;16.88;6.80;;;512.30;2380.80;;;;;;5032885;28;20064;-74
2023/09/13 02:51:48;;;;;;;29.65;6.80;;;512.10;2380.80;;;;;;5023200;28;20025;-73
2023/09/13 02:54:14;;;;;;;12.18;5.80;;;487.30;2380.80;;;;;;5033408;28;20109;-73
2023/09/13 02:56:40;;;;;;;11.38;5.90;;;487.20;2380.80;;;;;;5033057;28;20037;-73
2023/09/13 02:59:06;;;;;;;23.27;6.95;;;487.10;2380.80;;;;;;5033367;28;20427;-74
2023/09/13 03:01:31;;;;;;;12.35;6.18;;;487.10;2380.80;;;;;;5029683;28;20029;-72
2023/09/13 03:03:57;;;;;;;20.60;7.10;;;487.20;2380.80;;;;;;5022187;28;20034;-74
2023/09/13 03:06:23;;;;;;;15.23;6.43;;;487.30;2380.80;;;;;;5021046;28;20351;-73
2023/09/13 03:08:48;;;;;;;10.90;6.68;;;512.00;2380.80;;;;;;5028084;28;20108;-73
2023/09/13 03:11:17;;;;;;;14.25;6.47;;;512.20;2380.80;;;;;;5006919;28;20161;-73
2023/09/13 03:13:44;;;;;;;12.60;5.57;;;512.40;2380.80;;;;;;5025986;28;20030;-75
2023/09/13 03:16:21;;;;;;;12.25;5.97;;;512.50;2380.80;;;;;;5022843;28;20030;-73
2023/09/13 03:18:48;;;;;;;10.82;5.57;;;512.50;2380.80;;;;;;5026293;28;20108;-75
2023/09/13 03:21:18;;;;;;;12.57;5.90;;;512.40;2380.80;;;;;;5027500;28;20366;-74
2023/09/13 03:23:45;;;;;;;15.73;6.70;;;512.30;2380.80;;;;;;5024259;28;20025;-74
2023/09/13 03:26:21;;;;;;;13.65;5.85;;;512.30;2380.80;;;;;;5021844;28;20089;-75
2023/09/13 03:28:48;;;;;;;;;;;512.30;2380.80;;;;;;5020070;28;20136;-74
2023/09/13 03:31:15;;;;;;;;;;;512.20;2380.80;;;;;;5015784;28;20125;-73
2023/09/13 03:33:42;;;;;;;16.75;5.88;;;512.00;2380.80;;;;;;5024501;28;20376;-74
2023/09/13 03:36:09;;;;;;;11.30;5.55;;;512.00;2380.80;;;;;;5018209;28;20119;-74
2023/09/13 03:38:39;;;;;;;13.88;6.20;;;487.30;2380.80;;;;;;5022966;28;20046;-73
2023/09/13 03:41:10;;;;;;;10.68;5.55;;;487.20;2380.80;;;;;;5021747;28;20033;-73
2023/09/13 03:43:36;;;;;;;13.75;5.22;;;487.20;2380.80;;;;;;5021511;28;20030;-73
2023/09/13 03:46:03;;;;;;;13.70;6.10;;;487.30;2380.80;;;;;;5005905;28;20053;-74
2023/09/13 03:48:30;;;;;;;18.65;6.32;;;487.20;2380.80;;;;;;5025367;28;20024;-75
2023/09/13 03:50:57;;;;;;;9.95;5.20;;;487.10;2380.80;;;;;;5001575;28;20038;-74
2023/09/13 03:53:23;;;;;;;10.65;5.18;;;487.10;2380.80;;;;;;5026397;28;20022;-74
2023/09/13 03:55:50;;;;;;;12.73;5.82;;;487.20;2380.80;;;;;;5030655;28;20464;-75
2023/09/13 03:58:15;;;;;;;22.92;7.20;;;487.30;2380.80;;;;;;5033612;28;20013;-74
2023/09/13 04:00:41;;;;;;;18.20;6.68;;;512.30;2380.80;;;;;;5015928;28;20025;-75
2023/09/13 04:03:07;;;;;;;11.15;5.18;;;512.30;2380.80;;;;;;5032983;28;20033;-74
2023/09/13 04:05:33;;;;;;;17.75;6.13;;;512.30;2380.80;;;;;;5033465;28;20461;-74
2023/09/13 04:07:58;;;;;;;11.07;5.75;;;512.40;2380.80;;;;;;5033014;28;20025;-75
2023/09/13 04:10:24;;;;;;;12.63;5.97;;;512.30;2380.80;;;;;;5033342;28;20057;-75
2023/09/13 04:12:50;;;;;;;13.98;5.75;;;512.20;2380.80;;;;;;5015349;28;20427;-74
2023/09/13 04:15:16;;;;;;;13.43;6.05;;;512.20;2380.80;;;;;;5015641;28;20064;-74
2023/09/13 04:17:42;;;;;;;11.20;6.15;;;512.30;2380.80;;;;;;5015209;28;20457;-75
2023/09/13 04:20:10;;;;;;;13.65;5.85;;;512.50;2380.80;;;;;;5032912;28;20080;-74
2023/09/13 04:22:36;;;;;;;19.30;6.88;;;512.50;2380.80;;;;;;5033037;28;20037;-74
2023/09/13 04:25:06;;;;;;;16.55;6.35;;;512.50;2380.80;;;;;;5033127;28;20381;-74
2023/09/13 04:27:33;;;;;;;13.43;5.90;;;512.50;2380.80;;;;;;5032466;28;20045;-75
2023/09/13 04:29:59;;;;;;;17.52;6.15;;;512.50;2380.80;;;;;;5033057;28;20496;-74
2023/09/13 04:32:24;;;;;;;16.75;5.60;;;512.50;2380.80;;;;;;5032736;28;20026;-74
2023/09/13 04:34:51;;;;;;;15.60;6.40;;;512.40;2380.80;;;;;;5033062;28;20454;-74
2023/09/13 04:37:17;;;;;;;17.85;6.30;;;487.30;2380.80;;;;;;5032926;28;20068;-74
2023/09/13 04:39:43;;;;;;;14.85;6.63;;;512.40;2380.80;;;;;;5032953;28;20025;-74
2023/09/13 04:42:11;;;;;;;13.27;5.45;;;512.50;2380.80;;;;;;5032883;28;20026;-74
2023/09/13 04:44:37;;;;;;;21.58;6.28;;;512.50;2380.80;;;;;;5032905;28;20037;-74
2023/09/13 04:47:03;;;;;;;18.20;6.63;;;512.60;2380.80;;;;;;5032647;28;20109;-75
2023/09/13 04:49:28;;;;;;;15.95;7.47;;;512.60;2380.80;;;;;;5033003;28;20108;-74
2023/09/13 04:51:56;;;;;;;13.48;6.88;;;512.50;2380.80;;;;;;5032731;28;20025;-74
2023/09/13 04:54:22;;;;;;;12.73;6.15;;;512.60;2380.80;;;;;;5032934;28;20067;-74
2023/09/13 04:56:51;;;;;;;15.82;6.57;;;512.60;2380.80;;;;;;5032646;28;20025;-74
2023/09/13 04:59:18;;;;;;;19.95;7.47;;;512.60;2380.80;;;;;;5032932;28;20018;-74
2023/09/13 05:01:44;;;;;;;16.80;6.90;;;512.50;2380.80;;;;;;5032596;28;20028;-75
2023/09/13 05:04:11;;;;;;;17.80;7.30;;;512.50;2380.80;;;;;;5032710;28;20152;-74
2023/09/13 05:06:37;;;;;;;27.92;10.38;;;512.60;2380.80;;;;;;5032482;28;20013;-74
2023/09/13 05:09:04;;;;;;;25.25;8.55;;;512.70;2380.80;;;;;;5032718;28;20099;-74
2023/09/13 05:11:30;;;;;;;16.52;7.30;;;512.80;2380.80;;;;;;5032556;28;20508;-74
2023/09/13 05:14:12;;;;;;;14.05;7.30;;;512.80;2380.80;;;;;;5032656;28;20029;-74
2023/09/13 05:16:38;;;;;;;19.35;6.88;;;512.90;2380.80;;;;;;5032601;28;20025;-74
2023/09/13 05:19:03;;;;;;;15.75;6.88;;;512.90;2380.80;;;;;;5032336;28;20092;-74
2023/09/13 05:21:29;;;;;;;17.88;7.22;;;512.90;2380.80;;;;;;5032159;28;20459;-74
2023/09/13 05:23:55;;;;;;;16.48;7.10;;;512.80;2380.80;;;;;;5032495;28;20037;-74
2023/09/13 05:26:20;;;;;;;11.63;7.32;;;512.90;2380.80;;;;;;5032414;28;20046;-74
2023/09/13 05:28:46;;;;;;;13.35;7.78;;;537.60;2406.40;;;;;;5014434;28;20474;-75
2023/09/13 05:31:13;;;;;;;16.23;7.53;;;537.60;2406.40;;;;;;5032179;28;20013;-74
2023/09/13 05:33:39;;;;;;;18.80;7.85;;;537.70;2406.40;;;;;;5032633;28;20112;-75
2023/09/13 05:36:15;;;;;;;15.20;8.02;;;537.80;2406.40;;;;;;5014631;28;20101;-75
2023/09/13 05:38:41;;;;;;;19.13;7.82;;;537.90;2406.40;;;;;;5032324;28;20032;-74
2023/09/13 05:41:11;;;;;;;21.35;7.30;;;537.90;2406.40;;;;;;5019077;28;20021;-75
2023/09/13 05:43:41;;;;;;;13.63;7.15;;;537.90;2406.40;;;;;;5016372;28;20106;-75
2023/09/13 05:46:08;;;;;;;12.20;7.20;;;538.00;2406.40;;;;;;5036035;28;20029;-75
2023/09/13 05:48:35;;;;;;;14.65;7.50;;;538.10;2406.40;;;;;;5035694;28;20066;-74
2023/09/13 05:51:02;;;;;;;18.17;8.18;;;538.10;2406.40;;;;;;5035730;28;20087;-75
2023/09/13 05:53:29;;;;;;;19.20;7.82;;;538.20;2406.40;;;;;;5035620;28;20100;-75
2023/09/13 05:55:54;;;;;;;15.77;7.93;;;538.30;2406.40;;;;;;5035737;28;20022;-74
2023/09/13 05:58:20;;;;;;;24.50;8.80;;;538.40;2406.40;;;;;;5017862;28;20022;-74
2023/09/13 06:00:48;;;;;;;18.77;9.00;;;538.50;2406.40;;;;;;5018199;28;20018;-74
2023/09/13 06:03:17;;;;;;;17.02;8.70;;;538.50;2406.40;;;;;;5035284;28;20029;-76
2023/09/13 06:05:44;;;;;;;34.60;10.65;;;563.30;2432.00;;;;;;5017911;28;20112;-75
2023/09/13 06:08:09;;;;;;;19.33;8.82;;;563.40;2432.00;;;;;;5017804;28;20301;-75
2023/09/13 06:10:35;;;;;;;17.90;9.05;;;563.50;2432.00;;;;;;5035453;28;20107;-74
2023/09/13 06:13:01;;;;;;;18.67;9.30;;;563.70;2432.00;;;;;;5034928;28;20022;-74
2023/09/13 06:15:26;;;;;;;18.23;9.80;;;563.70;2432.00;;;;;;5035686;28;20065;-74
2023/09/13 06:17:53;;;;;;;20.52;8.98;;;563.70;2432.00;;;;;;5035210;28;20475;-75
2023/09/13 06:20:19;;;;;;;19.55;9.38;;;563.80;2432.00;;;;;;5034941;28;20073;-75
2023/09/13 06:22:45;;;;;;;21.02;8.88;;;563.90;2432.00;;;;;;5017147;28;20111;-75
2023/09/13 06:25:11;;;;;;;18.98;9.82;;;564.10;2432.00;;;;;;5035229;28;20033;-74
2023/09/13 06:27:36;;;;;;;22.55;10.20;;;588.80;2432.00;;;;;;5034714;28;20440;-74
2023/09/13 06:30:02;;;;;;;25.45;10.27;;;588.90;2432.00;;;;;;5001167;28;20029;-75
2023/09/13 06:32:28;;;;;;;21.90;11.35;;;589.00;2432.00;;;;;;5034877;28;20018;-75
2023/09/13 06:34:58;;;;;;;29.40;11.80;;;589.20;2432.00;;;;;;5034958;28;20488;-75
2023/09/13 06:37:25;;;;;;;25.75;12.38;;;589.40;2432.00;;;;;;5034775;28;20021;-74
2023/09/13 06:39:53;;;;;;;32.40;14.15;;;589.50;2432.00;;;;;;5034745;28;20018;-75
2023/09/13 06:42:19;;;;;;;22.95;13.18;;;589.70;2432.00;;;;;;5034697;28;20029;-75
2023/09/13 06:44:44;;;;;;;31.95;14.25;;;589.70;2432.00;;;;;;5035045;28;20038;-74
2023/09/13 06:47:10;;;;;;;25.02;12.85;;;614.60;2432.00;;;;;;5034791;28;20029;-74
2023/09/13 06:49:36;;;;;;;27.17;13.95;;;614.70;2432.00;;;;;;5034511;28;20018;-74
2023/09/13 06:52:02;;;;;;;30.45;12.45;;;614.80;2432.00;;;;;;5034323;28;20593;-75
2023/09/13 06:54:28;;;;;;;27.58;14.25;;;614.80;2432.00;;;;;;5034701;28;20053;-74
2023/09/13 06:56:54;;;;;;;35.30;15.68;;;614.90;2432.00;;;;;;5016731;28;20106;-75
2023/09/13 06:59:19;;;;;;;28.60;15.02;;;615.10;2432.00;;;;;;5034556;28;20034;-74
2023/09/13 07:01:46;;;;;;;31.55;15.02;;;640.00;2432.00;;;;;;5034688;28;20037;-74
2023/09/13 07:04:13;;;;;;;26.25;14.50;;;640.20;2432.00;;;;;;5034430;28;20029;-74
2023/09/13 07:06:39;;;;;;;29.70;16.17;;;640.20;2432.00;;;;;;5034269;28;20112;-74
2023/09/13 07:09:05;;;;;;;30.30;14.85;;;640.50;2432.00;;;;;;5034576;28;20036;-73
2023/09/13 07:11:30;;;;;;;31.98;13.93;;;640.70;2432.00;;;;;;5034201;28;20021;-72
2023/09/13 07:13:58;;;;;;;34.08;14.88;;;665.60;2380.80;;;;;;5034581;28;20060;-74
2023/09/13 07:16:24;;;;;;;26.70;13.18;;;665.90;2329.60;;;;;;5034188;28;20072;-75
2023/09/13 07:18:49;;;;;;;29.02;13.45;;;666.00;2355.20;;;;;;5034268;28;20033;-74
2023/09/13 07:21:15;;;;;;;23.90;13.13;;;665.90;2355.20;;;;;;5033830;28;20069;-74
2023/09/13 07:23:41;;;;;;;31.58;14.43;;;666.20;2304.00;;;;;;5034150;28;20073;-74
2023/09/13 07:26:07;;;;;;;20.05;13.23;;;666.20;2304.00;;;;;;5034127;28;20022;-74
2023/09/13 07:28:33;;;;;;;30.92;14.40;;;666.30;2278.40;;;;;;5033755;28;20067;-73
2023/09/13 07:30:59;;;;;;;22.20;12.57;;;666.50;2252.80;;;;;;5033910;28;20105;-74
2023/09/13 07:33:25;;;;;;;25.17;14.15;;;691.20;2252.80;;;;;;5016272;28;20441;-75
2023/09/13 07:35:51;;;;;;;24.55;13.77;;;691.20;2227.20;;;;;;5033858;28;20022;-74
2023/09/13 07:38:17;;;;;;;21.95;13.93;;;691.30;2227.20;;;;;;5016116;28;20052;-74
2023/09/13 07:40:42;;;;;;;33.75;14.07;;;691.60;2201.60;;;;;;5033576;28;20021;-75
2023/09/13 07:43:08;;;;;;;28.55;14.55;;;691.90;2150.40;;;;;;5033520;28;20026;-75
2023/09/13 07:45:34;;;;;;;40.70;15.02;;;691.90;2124.80;;;;;;5033679;28;20040;-74
2023/09/13 07:48:02;;;;;;;36.20;14.35;;;692.10;2099.20;;;;;;5016032;28;20069;-74
2023/09/13 07:50:29;;;;;;;26.90;14.65;;;717.10;2073.60;;;;;;5033647;28;20025;-74
2023/09/13 07:52:54;;;;;;;31.92;14.30;;;716.80;2073.60;;;;;;5033622;28;20030;-74
2023/09/13 07:55:20;;;;;;;31.63;13.00;;;717.00;2048.00;;;;;;5033326;28;20382;-73
2023/09/13 07:57:46;;;;;;;26.02;13.52;;;717.40;2048.00;;;;;;5033351;28;20021;-75
2023/09/13 08:00:12;;;;;;;24.08;13.43;;;717.40;1996.80;;;;;;5015738;28;20413;-75
2023/09/13 08:02:38;;;;;;;27.17;13.32;;;717.70;1971.20;;;;;;5015699;28;20100;-74
2023/09/13 08:05:04;;;;;;;19.55;12.35;;;742.40;1996.80;;;;;;5032950;28;20113;-75
2023/09/13 08:07:30;;;;;;;22.05;12.52;;;742.70;1920.00;;;;;;5015315;28;20435;-75
2023/09/13 08:09:55;;;;;;;26.55;12.77;;;742.70;1920.00;;;;;;5033484;28;20039;-75
2023/09/13 08:12:22;;;;;;;25.50;12.70;;;742.90;1894.40;;;;;;5033322;28;20075;-75
2023/09/13 08:14:47;;;;;;;20.48;11.95;;;743.00;1843.20;;;;;;5033691;28;20021;-75
2023/09/13 08:17:13;;;;;;;28.77;11.27;;;743.30;1792.00;;;;;;5033568;28;20112;-75
2023/09/13 08:19:39;;;;;;;16.88;10.85;;;768.00;1817.60;;;;;;5032937;28;20477;-75
2023/09/13 08:22:04;;;;;;;22.85;11.23;;;768.10;1766.40;;;;;;5033149;28;20109;-75
2023/09/13 08:24:32;;;;;;;23.77;10.52;;;768.20;1715.20;;;;;;5033042;28;20473;-75
2023/09/13 08:26:58;;;;;;;20.25;12.30;;;768.60;1689.60;;;;;;5033347;28;20021;-75
2023/09/13 08:29:23;;;;;;;23.02;11.40;;;768.40;1664.00;;;;;;5032723;28;20018;-75
2023/09/13 08:31:49;;;;;;;16.67;10.32;;;768.70;1664.00;;;;;;5033270;28;20497;-74
2023/09/13 08:34:15;;;;;;;22.83;11.65;;;768.60;1689.60;;;;;;5033004;28;20021;-74
2023/09/13 08:36:41;;;;;;;23.35;11.13;;;768.90;1664.00;;;;;;5033006;28;20089;-75
2023/09/13 08:39:06;;;;;;;24.90;11.90;;;768.90;1664.00;;;;;;5032971;28;20025;-76
2023/09/13 08:41:33;;;;;;;17.25;10.85;;;793.70;1664.00;;;;;;5032918;28;20033;-75
2023/09/13 08:44:02;;;;;;;27.25;11.45;;;794.00;1664.00;;;;;;5032788;28;20029;-76
2023/09/13 08:46:29;;;;;;;27.15;12.40;;;794.00;1612.80;;;;;;5033047;28;20022;-76
2023/09/13 08:48:56;;;;;;;25.67;10.38;;;794.30;1612.80;;;;;;5032669;28;20083;-75
2023/09/13 08:51:22;;;;;;;25.40;10.43;;;819.30;1587.20;;;;;;5032952;28;20424;-75
2023/09/13 08:53:51;;;;;;;23.35;12.45;;;794.30;1638.40;;;;;;5032618;28;20017;-75
2023/09/13 08:56:19;;;;;;;24.48;10.82;;;819.30;1612.80;;;;;;5032883;28;20364;-74
2023/09/13 08:58:45;;;;;;;22.65;11.45;;;794.50;1612.80;;;;;;5032730;28;20021;-75
2023/09/13 09:01:12;;;;;;;24.42;11.55;;;819.50;1587.20;;;;;;5032756;28;20030;-74
2023/09/13 09:03:39;;;;;;;17.63;11.15;;;819.60;1561.60;;;;;;5032123;28;20036;-75
2023/09/13 09:06:06;;;;;;;20.20;10.68;;;819.30;1587.20;;;;;;5032978;28;20029;-75
2023/09/13 09:08:37;;;;;;;20.25;10.75;;;819.70;1510.40;;;;;;5032649;28;20025;-75
2023/09/13 09:11:03;;;;;;;17.88;10.70;;;819.90;1536.00;;;;;;5032933;28;20378;-74
2023/09/13 09:13:31;;;;;;;16.20;10.00;;;820.10;1510.40;;;;;;5032650;28;20044;-75
2023/09/13 09:15:59;;;;;;;17.83;9.23;;;820.10;1561.60;;;;;;5032311;28;20022;-75
2023/09/13 09:18:27;;;;;;;14.13;8.43;;;844.90;1484.80;;;;;;5019598;28;20078;-74
2023/09/13 09:20:54;;;;;;;20.77;10.05;;;844.90;1459.20;;;;;;5036077;28;20547;-75
2023/09/13 09:23:23;;;;;;;26.50;10.60;;;845.20;1459.20;;;;;;5036126;28;20037;-75
2023/09/13 09:25:50;;;;;;;19.92;10.27;;;844.80;1484.80;;;;;;5036256;28;20385;-74
2023/09/13 09:28:16;;;;;;;17.55;9.30;;;844.90;1484.80;;;;;;5035971;28;20096;-74
2023/09/13 09:30:44;;;;;;;21.20;11.52;;;845.30;1459.20;;;;;;5036033;28;20041;-75
2023/09/13 09:33:10;;;;;;;22.38;11.27;;;845.40;1510.40;;;;;;5036126;28;20033;-74
2023/09/13 09:35:36;;;;;;;20.40;10.32;;;870.40;1459.20;;;;;;5036399;28;20104;-75
2023/09/13 09:38:03;;;;;;;18.23;10.63;;;845.70;1433.60;;;;;;5036138;28;20088;-75
2023/09/13 09:40:37;;;;;;;17.05;8.15;;;870.40;1408.00;;;;;;5036205;28;20020;-74
2023/09/13 09:43:03;;;;;;;15.20;8.43;;;870.40;1356.80;;;;;;5018417;28;20112;-74
2023/09/13 09:45:29;;;;;;;18.70;8.55;;;870.50;1305.60;;;;;;5017429;28;20133;-74
2023/09/13 09:47:55;;;;;;;18.85;8.10;;;870.50;1331.20;;;;;;5036124;28;20029;-74
2023/09/13 09:50:21;;;;;;;16.73;8.80;;;870.80;1305.60;;;;;;5018067;28;20111;-74
2023/09/13 09:52:51;;;;;;;15.43;8.93;;;870.60;1331.20;;;;;;5035898;28;20029;-74
2023/09/13 09:55:21;;;;;;;25.35;10.57;;;870.90;1331.20;;;;;;5035558;28;20021;-75
2023/09/13 09:57:49;;;;;;;23.92;9.45;;;871.10;1331.20;;;;;;5035903;28;20030;-74
2023/09/13 10:00:15;;;;;;;18.92;11.27;;;871.10;1305.60;;;;;;5035542;28;20018;-75
2023/09/13 10:02:43;;;;;;;17.17;10.60;;;871.30;1305.60;;;;;;5017783;28;20092;-75
2023/09/13 10:05:09;;;;;;;16.27;9.45;;;871.20;1356.80;;;;;;5035464;28;20034;-74
2023/09/13 10:07:42;;;;;;;16.42;9.48;;;871.30;1356.80;;;;;;5035760;28;20028;-75
2023/09/13 10:10:09;;;;;;;17.58;10.55;;;896.10;1356.80;;;;;;5035287;28;20034;-73
2023/09/13 10:12:44;;;;;;;26.27;10.68;;;896.20;1331.20;;;;;;5035446;28;20424;-73
2023/09/13 10:15:11;;;;;;;16.23;9.82;;;896.30;1305.60;;;;;;5022933;28;20029;-73
2023/09/13 10:17:39;;;;;;;22.17;9.70;;;896.20;1280.00;;;;;;5035027;28;20057;-75
2023/09/13 10:20:06;;;;;;;20.00;9.93;;;896.20;1305.60;;;;;;5017397;28;20049;-74
2023/09/13 10:22:35;;;;;;;14.20;8.32;;;896.30;1280.00;;;;;;5017340;28;20030;-74
2023/09/13 10:25:05;;;;;;;20.48;9.27;;;896.30;1280.00;;;;;;5035230;28;20124;-74
2023/09/13 10:27:34;;;;;;;14.13;8.68;;;896.60;1254.40;;;;;;5016946;28;20029;-75
2023/09/13 10:30:04;;;;;;;14.60;8.07;;;896.70;1228.80;;;;;;5034978;28;20540;-76
2023/09/13 10:32:34;;;;;;;19.38;8.85;;;896.70;1203.20;;;;;;5016759;28;20069;-73
2023/09/13 10:35:03;;;;;;;23.40;7.90;;;896.70;1254.40;;;;;;5034947;28;20024;-74
2023/09/13 10:37:56;;;;;;;18.40;7.78;;;896.80;1177.60;;;;;;5034669;28;20100;-76
2023/09/13 10:40:27;;;;;;;15.55;9.90;;;921.60;1228.80;;;;;;5034934;28;20032;-74
2023/09/13 10:42:54;;;;;;;14.85;8.95;;;896.80;1228.80;;;;;;5034842;28;20060;-75
2023/09/13 10:45:22;;;;;;;14.75;9.07;;;896.90;1228.80;;;;;;5034627;28;20033;-74
2023/09/13 10:47:49;;;;;;;16.13;8.63;;;921.70;1280.00;;;;;;5034937;28;20013;-73
2023/09/13 10:50:16;;;;;;;18.58;7.78;;;921.80;1177.60;;;;;;5034387;28;20087;-74
2023/09/13 10:52:43;;;;;;;11.18;6.82;;;921.90;1152.00;;;;;;5034717;28;20100;-74
2023/09/13 10:55:14;;;;;;;14.15;8.63;;;921.70;1203.20;;;;;;5034686;28;20021;-75
2023/09/13 10:57:41;;;;;;;16.60;9.27;;;921.90;1203.20;;;;;;5034752;28;20075;-76
2023/09/13 11:00:11;;;;;;;19.75;8.90;;;922.00;1203.20;;;;;;5034428;28;20382;-74
2023/09/13 11:02:40;;;;;;;13.68;7.43;;;922.20;1177.60;;;;;;5034666;28;20030;-75
2023/09/13 11:05:08;;;;;;;14.20;8.02;;;922.20;1152.00;;;;;;5034096;28;20034;-74
2023/09/13 11:07:43;;;;;;;14.77;7.97;;;922.30;1152.00;;;;;;5034491;28;20028;-74
2023/09/13 11:10:13;;;;;;;15.00;7.55;;;922.30;1152.00;;;;;;5034188;28;20029;-74
2023/09/13 11:12:39;;;;;;;14.40;8.13;;;922.30;1126.40;;;;;;5034401;28;20045;-76
2023/09/13 11:15:22;;;;;;;18.63;7.70;;;922.50;1152.00;;;;;;5034246;28;20017;-75
2023/09/13 11:17:48;;;;;;;12.70;7.28;;;922.50;1126.40;;;;;;5033933;28;20029;-75
2023/09/13 11:20:32;;;;;;;18.63;7.82;;;922.50;1152.00;;;;;;5034041;28;20046;-75
2023/09/13 11:23:06;;;;;;;16.38;6.75;;;922.20;1177.60;;;;;;5033725;28;20033;-75
2023/09/13 11:25:37;;;;;;;15.52;7.55;;;922.40;1126.40;;;;;;5016492;28;20493;-74
2023/09/13 11:28:08;;;;;;;14.02;7.22;;;922.50;1152.00;;;;;;5033797;28;20025;-74
2023/09/13 11:30:48;;;;;;;14.90;6.60;;;922.50;1100.80;;;;;;5033993;28;20330;-74
2023/09/13 11:33:14;;;;;;;12.82;6.28;;;922.50;1049.60;;;;;;5022374;28;20021;-75
2023/09/13 11:35:41;;;;;;;14.95;6.18;;;922.50;1075.20;;;;;;5033840;28;20033;-75
2023/09/13 11:38:08;;;;;;;12.18;6.57;;;947.40;1075.20;;;;;;5033818;28;20317;-76
2023/09/13 11:40:34;;;;;;;13.80;5.47;;;947.50;1049.60;;;;;;5032988;28;20025;-75
2023/09/13 11:43:01;;;;;;;11.98;5.50;;;947.40;1024.00;;;;;;5034078;28;20025;-75
2023/09/13 11:45:30;;;;;;;18.80;6.43;;;947.50;972.80;;;;;;5033733;28;20033;-75
2023/09/13 11:47:56;;;;;;;11.15;4.57;;;947.70;972.80;;;;;;5034037;28;20024;-75
2023/09/13 11:50:22;;;;;;;16.80;5.65;;;947.40;947.20;;;;;;5033511;28;20028;-75
2023/09/13 11:53:16;;;;;;;10.68;4.80;;;947.50;921.60;;;;;;5033899;28;20018;-75
2023/09/13 11:55:55;;;;;;;13.40;5.45;;;947.60;947.20;;;;;;5033654;28;20013;-75
2023/09/13 11:58:36;;;;;;;10.77;5.25;;;947.60;947.20;;;;;;5033470;28;20128;-74
2023/09/13 12:01:04;;;;;;;11.98;5.03;;;947.60;947.20;;;;;;5033678;28;20017;-74
2023/09/13 12:03:39;;;;;;;9.40;4.95;;;947.70;896.00;;;;;;5029558;28;20026;-75
2023/09/13 12:06:06;;;;;;;11.93;5.50;;;947.60;921.60;;;;;;5008056;28;20036;-76
2023/09/13 12:08:36;;;;;;;11.98;4.75;;;947.20;998.40;;;;;;5033376;28;20028;-75
2023/09/13 12:11:05;;;;;;;7.28;5.25;;;947.60;921.60;;;;;;5033328;28;20318;-74